Kilcreggan, United Kingdom
Current Conditions -  °F | °C
As of 9:50 PM on Saturday 20 Dec 2014 (Local Time) from EGPF Reporting Station
Light Rain Light Rain  
Wind Chill: 38°   Ceiling: 2300
Heat Index: 45°   Visibility: 6mi
Dew Point: 43°   Wind: 14mph
Humidity: 93%   Direction: 230°SW
Pressure: 30.18"   Gusts: NA
Location:  55.98°N, 4.82°W
Report Text: EGPF 202150Z AUTO 23012KT 9999 -RA BKN023 07/06 Q1022 RERA
Loading
Personal Weather Stations






























Interactive Weather Map New forecast layout! Learn more

10-Day Weather Forecast

Advertisements
Track Severe Weather on mobile